Time;durP1;ratioP1;P1;durP2;ratioP2;P2;SDS_P1;SDS_P2;PMS_P1;PMS_P2;Temp;Humidity;BMP_temperature;BMP_pressure;BME280_temperature;BME280_humidity;BME280_pressure;Samples;Min_cycle;Max_cycle;Signal;HPM_P1;HPM_P2
2022/06/02 00:01:30;;;;;;;0.70;0.70;;;20.70;65.30;;;;;;5085236;28;44046;-68
2022/06/02 00:04:01;;;;;;;1.03;0.80;;;20.70;65.30;;;;;;5087072;28;44021;-68
2022/06/02 00:06:43;;;;;;;0.80;0.80;;;20.70;65.30;;;;;;5086497;28;43991;-68
2022/06/02 00:09:16;;;;;;;0.73;0.73;;;20.70;65.30;;;;;;5086407;28;44077;-68
2022/06/02 00:11:55;;;;;;;0.73;0.73;;;20.70;65.40;;;;;;5086461;28;44120;-69
2022/06/02 00:14:26;;;;;;;0.63;0.63;;;20.60;65.30;;;;;;5087222;28;43757;-69
2022/06/02 00:16:58;;;;;;;0.80;0.80;;;20.70;65.30;;;;;;5086412;28;44077;-68
2022/06/02 00:19:30;;;;;;;0.80;0.80;;;20.70;65.30;;;;;;5093405;27;43979;-69
2022/06/02 00:22:01;;;;;;;0.70;0.70;;;20.70;66.10;;;;;;5106183;27;43831;-69
2022/06/02 00:24:34;;;;;;;0.90;0.90;;;20.80;66.10;;;;;;5107066;27;44045;-68
2022/06/02 00:27:05;;;;;;;0.70;0.70;;;20.90;65.60;;;;;;5087879;27;47205;-69
2022/06/02 00:29:38;;;;;;;0.80;0.80;;;21.10;65.30;;;;;;5087997;27;44944;-69
2022/06/02 00:32:09;;;;;;;0.80;0.80;;;21.20;64.60;;;;;;5087723;27;43934;-70
2022/06/02 00:34:40;;;;;;;0.83;0.83;;;21.40;64.30;;;;;;5106702;27;44006;-68
2022/06/02 00:37:24;;;;;;;0.70;0.70;;;21.50;63.90;;;;;;5093578;27;43949;-69
2022/06/02 00:39:53;;;;;;;0.90;0.90;;;21.70;63.40;;;;;;5086934;27;44054;-68
2022/06/02 00:42:37;;;;;;;0.70;0.70;;;21.80;63.00;;;;;;5086970;27;43995;-68
2022/06/02 00:45:07;;;;;;;0.80;0.80;;;21.90;62.50;;;;;;5086571;27;44009;-68
2022/06/02 00:47:46;;;;;;;0.77;0.77;;;22.00;62.30;;;;;;5088902;27;44015;-69
2022/06/02 00:50:22;;;;;;;0.80;0.80;;;22.00;62.20;;;;;;5090118;27;43955;-67
2022/06/02 00:52:55;;;;;;;0.90;0.90;;;21.80;62.60;;;;;;5090091;27;43957;-68
2022/06/02 00:58:25;;;;;;;0.70;0.70;;;21.40;63.10;;;;;;5089974;27;43882;-69
2022/06/02 01:00:54;;;;;;;0.90;0.90;;;21.30;63.50;;;;;;5090129;27;44039;-69
2022/06/02 01:03:25;;;;;;;0.70;0.70;;;21.10;63.80;;;;;;5090079;27;43988;-68
2022/06/02 01:06:02;;;;;;;0.80;0.80;;;21.00;64.10;;;;;;5090375;27;43903;-68
2022/06/02 01:08:45;;;;;;;0.80;0.80;;;20.90;64.30;;;;;;5089584;27;43919;-69
2022/06/02 01:11:18;;;;;;;0.70;0.70;;;20.90;64.60;;;;;;5070536;28;44794;-68
2022/06/02 01:13:59;;;;;;;1.00;1.00;;;20.80;64.70;;;;;;5089371;28;43876;-68
2022/06/02 01:16:30;;;;;;;1.00;1.00;;;20.80;64.80;;;;;;5089550;28;43963;-68
2022/06/02 01:19:07;;;;;;;0.80;0.80;;;20.80;65.00;;;;;;5088180;28;44041;-68
2022/06/02 01:22:10;;;;;;;0.80;0.80;;;20.70;65.00;;;;;;5086837;28;43861;-68
2022/06/02 01:25:13;;;;;;;0.90;0.90;;;20.70;65.10;;;;;;5089192;27;44057;-68
2022/06/02 01:28:11;;;;;;;1.00;1.00;;;20.70;65.20;;;;;;5079341;27;44343;-69
2022/06/02 01:30:48;;;;;;;0.90;0.90;;;20.70;65.20;;;;;;5108133;27;44407;-68
2022/06/02 01:33:21;;;;;;;1.00;1.00;;;20.60;65.10;;;;;;5088690;28;43932;-68
2022/06/02 01:35:58;;;;;;;0.90;0.90;;;20.60;65.20;;;;;;5088704;28;43907;-69
2022/06/02 01:38:29;;;;;;;0.90;0.90;;;20.60;65.20;;;;;;5088886;28;44026;-68
2022/06/02 01:41:00;;;;;;;0.80;0.80;;;20.60;65.20;;;;;;5088447;28;43814;-68
2022/06/02 01:43:31;;;;;;;0.80;0.80;;;20.60;65.90;;;;;;5088823;28;43813;-68
2022/06/02 01:46:16;;;;;;;0.83;0.83;;;20.70;66.10;;;;;;5089029;28;43300;-69
2022/06/02 01:48:48;;;;;;;1.00;1.00;;;20.80;65.80;;;;;;5087079;28;44314;-70
2022/06/02 01:51:18;;;;;;;0.73;0.73;;;21.00;65.30;;;;;;5088882;27;44018;-68
2022/06/02 01:53:53;;;;;;;0.90;0.90;;;21.20;64.90;;;;;;5089007;27;43414;-68
2022/06/02 01:56:29;;;;;;;0.83;0.83;;;21.40;64.40;;;;;;5089245;27;43993;-69
2022/06/02 01:59:16;;;;;;;0.83;0.83;;;21.50;63.90;;;;;;5089284;27;43888;-69
2022/06/02 02:01:48;;;;;;;0.70;0.70;;;21.60;63.30;;;;;;5088752;27;44019;-69
2022/06/02 02:04:34;;;;;;;0.90;0.90;;;21.80;63.60;;;;;;5088128;27;44098;-68
2022/06/02 02:07:04;;;;;;;1.00;1.00;;;21.90;62.50;;;;;;5088974;27;43996;-69
2022/06/02 02:09:36;;;;;;;0.90;0.90;;;22.00;62.20;;;;;;5089149;27;43427;-68
2022/06/02 02:12:04;;;;;;;0.80;0.80;;;22.10;62.00;;;;;;5069974;27;45773;-68
2022/06/02 02:14:50;;;;;;;0.90;0.90;;;22.00;61.90;;;;;;5070126;27;44860;-69
2022/06/02 02:17:32;;;;;;;0.90;0.90;;;21.90;62.30;;;;;;5088731;27;43991;-69
2022/06/02 02:20:03;;;;;;;0.90;0.90;;;21.70;62.90;;;;;;5088949;27;43994;-68
2022/06/02 02:22:34;;;;;;;0.93;0.93;;;21.50;63.00;;;;;;5069958;27;46148;-68
2022/06/02 02:25:08;;;;;;;0.80;0.80;;;21.30;63.20;;;;;;5070491;27;44675;-69
2022/06/02 02:30:23;;;;;;;1.00;1.00;;;21.00;63.90;;;;;;5087752;27;43971;-68
2022/06/02 02:32:57;;;;;;;0.90;0.90;;;20.90;64.10;;;;;;5088578;27;43765;-68
2022/06/02 02:35:26;;;;;;;0.90;0.90;;;20.90;64.50;;;;;;5088044;27;43868;-68
2022/06/02 02:37:55;;;;;;;0.80;0.80;;;20.80;64.60;;;;;;5088140;27;44003;-69
2022/06/02 02:40:28;;;;;;;1.00;1.00;;;20.80;64.80;;;;;;5088891;27;44036;-68
2022/06/02 02:42:58;;;;;;;1.20;1.10;;;20.70;64.80;;;;;;5088194;27;45136;-69
2022/06/02 02:45:32;;;;;;;1.00;1.00;;;20.70;64.90;;;;;;5108009;27;43795;-69
2022/06/02 02:48:06;;;;;;;1.10;1.10;;;20.70;65.00;;;;;;5106876;27;43880;-68
2022/06/02 02:50:36;;;;;;;0.90;0.90;;;20.60;65.00;;;;;;5089491;27;44043;-69
2022/06/02 02:53:07;;;;;;;1.00;1.00;;;20.60;65.00;;;;;;5107698;27;43977;-69
2022/06/02 02:55:36;;;;;;;1.00;1.00;;;20.60;65.10;;;;;;5089035;27;44861;-68
2022/06/02 02:58:09;;;;;;;0.90;0.90;;;20.60;65.10;;;;;;5107644;27;43354;-68
2022/06/02 03:00:39;;;;;;;0.93;0.93;;;20.60;65.10;;;;;;5089374;27;43919;-69
2022/06/02 03:03:10;;;;;;;0.97;0.97;;;20.60;65.10;;;;;;5107476;27;43955;-68
2022/06/02 03:05:47;;;;;;;1.00;1.00;;;20.60;65.20;;;;;;5089173;27;44689;-69
2022/06/02 03:08:24;;;;;;;0.97;0.97;;;20.60;65.10;;;;;;5107719;27;43962;-68
2022/06/02 03:10:53;;;;;;;0.90;0.90;;;20.60;65.10;;;;;;5089060;27;44246;-68
2022/06/02 03:13:27;;;;;;;0.90;0.90;;;20.60;65.70;;;;;;5107801;27;43962;-69
2022/06/02 03:15:57;;;;;;;0.90;0.90;;;20.70;66.10;;;;;;5107477;27;43892;-68
2022/06/02 03:18:53;;;;;;;0.97;0.97;;;20.80;65.50;;;;;;5107677;27;43828;-68
2022/06/02 03:21:30;;;;;;;0.90;0.90;;;21.00;65.00;;;;;;5107771;27;44047;-68
2022/06/02 03:24:29;;;;;;;1.00;1.00;;;21.20;64.60;;;;;;5107107;27;44033;-68
2022/06/02 03:27:07;;;;;;;0.80;0.80;;;21.40;64.00;;;;;;5105594;27;43880;-68
2022/06/02 03:29:42;;;;;;;0.90;0.90;;;21.60;63.50;;;;;;5100666;27;43347;-68
2022/06/02 03:32:13;;;;;;;1.00;1.00;;;21.70;62.90;;;;;;5089040;27;43926;-68
2022/06/02 03:34:46;;;;;;;0.80;0.80;;;21.90;62.50;;;;;;5107087;27;44938;-69
2022/06/02 03:37:25;;;;;;;0.80;0.80;;;22.00;62.10;;;;;;5075600;28;45136;-68
2022/06/02 03:40:03;;;;;;;1.00;1.00;;;22.00;61.90;;;;;;5069455;27;43977;-68
2022/06/02 03:42:34;;;;;;;1.00;1.00;;;21.90;62.10;;;;;;5087889;27;43989;-70
2022/06/02 03:45:18;;;;;;;0.90;0.90;;;21.70;62.50;;;;;;5097044;27;43586;-69
2022/06/02 03:47:59;;;;;;;0.90;0.90;;;21.50;62.90;;;;;;5088171;27;45101;-69
2022/06/02 03:50:40;;;;;;;1.00;1.00;;;21.30;62.80;;;;;;5107432;27;43881;-68
2022/06/02 03:53:19;;;;;;;1.43;1.43;;;21.20;63.30;;;;;;5088783;27;43951;-70
2022/06/02 03:55:53;;;;;;;1.67;1.50;;;21.10;63.60;;;;;;5106793;27;44041;-68
2022/06/02 03:58:35;;;;;;;3.00;1.80;;;20.90;63.80;;;;;;5106923;27;44084;-70
2022/06/02 04:01:05;;;;;;;2.97;1.97;;;20.90;64.10;;;;;;5087211;28;43900;-68
2022/06/02 04:03:41;;;;;;;4.00;2.40;;;20.80;64.40;;;;;;5100781;27;44015;-69
2022/06/02 04:06:22;;;;;;;4.97;2.60;;;20.80;64.50;;;;;;5099331;27;43794;-68
2022/06/02 04:09:02;;;;;;;3.87;3.10;;;20.70;64.60;;;;;;5087397;27;43888;-68
2022/06/02 04:14:26;;;;;;;7.43;3.50;;;20.60;64.70;;;;;;5099082;27;44029;-68
2022/06/02 04:16:57;;;;;;;10.47;4.07;;;20.70;65.00;;;;;;5102145;27;43766;-68
2022/06/02 04:22:44;;;;;;;9.83;3.80;;;20.60;64.90;;;;;;5109052;27;43992;-69
2022/06/02 04:25:19;;;;;;;9.67;4.00;;;20.60;64.90;;;;;;5093134;27;44009;-69
2022/06/02 04:27:49;;;;;;;10.30;4.63;;;20.60;65.00;;;;;;5110371;27;44009;-69
2022/06/02 04:30:20;;;;;;;10.27;4.67;;;20.60;65.00;;;;;;5110114;27;43773;-68
2022/06/02 04:32:52;;;;;;;10.97;4.40;;;20.60;65.60;;;;;;5084769;27;43995;-68
2022/06/02 04:35:27;;;;;;;9.20;4.27;;;20.70;65.90;;;;;;5110415;27;43909;-69
2022/06/02 04:38:00;;;;;;;12.17;5.60;;;20.80;65.50;;;;;;5110128;27;44380;-69
2022/06/02 04:40:35;;;;;;;10.43;5.27;;;20.90;65.10;;;;;;5091331;27;44913;-68
2022/06/02 04:43:07;;;;;;;9.73;4.87;;;21.10;64.80;;;;;;5110108;27;43964;-67
2022/06/02 04:45:38;;;;;;;9.47;4.93;;;21.30;64.30;;;;;;5110253;27;43395;-69
2022/06/02 04:48:10;;;;;;;9.97;4.83;;;21.50;63.90;;;;;;5108260;27;44002;-68
2022/06/02 04:50:41;;;;;;;12.87;5.13;;;21.60;63.20;;;;;;5089937;27;44026;-68
2022/06/02 04:53:16;;;;;;;11.20;4.60;;;21.70;62.80;;;;;;5089855;27;44019;-69
2022/06/02 04:55:53;;;;;;;10.67;4.70;;;21.80;62.50;;;;;;5090371;27;44070;-68
2022/06/02 04:58:24;;;;;;;10.73;4.97;;;22.00;62.30;;;;;;5090143;27;43902;-68
2022/06/02 05:01:03;;;;;;;8.90;4.73;;;22.00;61.90;;;;;;5090043;27;43931;-68
2022/06/02 05:03:35;;;;;;;6.33;4.43;;;22.00;61.70;;;;;;5089732;27;43929;-69
2022/06/02 05:06:06;;;;;;;8.90;4.70;;;22.00;61.90;;;;;;5090090;27;44113;-69
2022/06/02 05:08:44;;;;;;;8.73;4.33;;;21.90;62.30;;;;;;5089904;27;43899;-69
2022/06/02 05:11:18;;;;;;;10.10;4.77;;;21.60;62.60;;;;;;5071201;27;45566;-68
2022/06/02 05:13:51;;;;;;;7.47;4.27;;;21.50;62.80;;;;;;5099405;27;43897;-68
2022/06/02 05:16:24;;;;;;;6.20;4.10;;;21.30;63.00;;;;;;5106322;27;44025;-68
2022/06/02 05:19:32;;;;;;;8.37;3.77;;;21.20;63.50;;;;;;5089708;27;44057;-69
2022/06/02 05:22:42;;;;;;;8.07;4.10;;;21.00;63.80;;;;;;5089455;27;43922;-68
2022/06/02 05:25:39;;;;;;;5.50;4.00;;;20.90;64.10;;;;;;5057552;27;44072;-67
2022/06/02 05:28:40;;;;;;;8.33;3.90;;;20.80;64.40;;;;;;5089902;27;43944;-68
2022/06/02 05:31:27;;;;;;;5.80;3.90;;;20.80;64.60;;;;;;5085617;27;44152;-68
2022/06/02 05:34:15;;;;;;;7.00;4.10;;;20.70;64.70;;;;;;5108793;27;43957;-68
2022/06/02 05:36:50;;;;;;;3.73;3.40;;;20.70;64.90;;;;;;5108684;27;43979;-69
2022/06/02 05:39:35;;;;;;;5.17;3.60;;;20.70;65.00;;;;;;5109416;27;43983;-69
2022/06/02 05:42:11;;;;;;;5.47;3.70;;;20.60;65.00;;;;;;5108801;27;43862;-69
2022/06/02 05:44:54;;;;;;;4.97;3.90;;;20.60;65.00;;;;;;5088985;27;43817;-68
2022/06/02 05:47:28;;;;;;;5.47;3.43;;;20.60;65.10;;;;;;5088916;28;43889;-70
2022/06/02 05:49:59;;;;;;;5.57;3.43;;;20.60;65.20;;;;;;5089241;28;43905;-67
2022/06/02 05:52:32;;;;;;;7.93;3.77;;;20.60;65.20;;;;;;5088552;28;43763;-69
2022/06/02 05:55:25;;;;;;;3.53;3.23;;;20.60;65.20;;;;;;5088499;28;43983;-68
2022/06/02 05:57:59;;;;;;;4.10;3.20;;;20.60;65.20;;;;;;5096390;27;43931;-69
2022/06/02 06:00:32;;;;;;;4.43;3.63;;;20.60;65.30;;;;;;5109017;27;44028;-68
2022/06/02 06:03:37;;;;;;;4.10;3.50;;;20.60;65.90;;;;;;5108253;27;43997;-68
2022/06/02 06:06:08;;;;;;;4.50;3.60;;;20.60;66.00;;;;;;5107726;27;43951;-68
2022/06/02 06:08:51;;;;;;;3.03;2.83;;;20.80;65.60;;;;;;5108601;27;43345;-68
2022/06/02 06:11:25;;;;;;;3.47;3.17;;;21.00;65.10;;;;;;5109067;27;43876;-68
2022/06/02 06:14:24;;;;;;;5.93;3.80;;;21.10;64.60;;;;;;5089760;27;46197;-67
2022/06/02 06:16:57;;;;;;;4.00;3.10;;;21.30;64.10;;;;;;5108060;27;43918;-68
2022/06/02 06:19:35;;;;;;;3.60;3.30;;;21.50;63.60;;;;;;5094138;27;44022;-67
2022/06/02 06:22:25;;;;;;;3.57;3.27;;;21.60;63.00;;;;;;5089181;27;43890;-68
2022/06/02 06:25:11;;;;;;;3.13;2.90;;;21.80;62.70;;;;;;5088254;27;44060;-68
2022/06/02 06:27:45;;;;;;;3.00;2.70;;;21.90;62.50;;;;;;5088007;28;43777;-68
2022/06/02 06:30:24;;;;;;;3.57;3.27;;;21.80;62.30;;;;;;5108453;27;43936;-69
2022/06/02 06:32:58;;;;;;;3.33;3.03;;;21.70;62.60;;;;;;5083891;27;43384;-69
2022/06/02 06:35:33;;;;;;;3.13;2.93;;;21.50;63.10;;;;;;5108090;27;44030;-69
2022/06/02 06:38:11;;;;;;;2.93;2.73;;;21.30;63.10;;;;;;5107754;27;43921;-68
2022/06/02 06:40:56;;;;;;;3.23;2.93;;;21.20;63.50;;;;;;5107746;27;43983;-69
2022/06/02 06:43:32;;;;;;;2.60;2.50;;;21.00;63.90;;;;;;5070076;27;44111;-68
2022/06/02 06:46:09;;;;;;;3.37;3.07;;;20.90;64.20;;;;;;5096387;27;43924;-68
2022/06/02 06:48:39;;;;;;;3.00;2.80;;;20.80;64.50;;;;;;5107604;27;43978;-68
2022/06/02 06:51:11;;;;;;;3.13;2.83;;;20.70;64.70;;;;;;5108066;27;43922;-68
2022/06/02 06:53:45;;;;;;;3.20;2.90;;;20.70;65.00;;;;;;5108097;27;43919;-68
2022/06/02 06:56:17;;;;;;;3.40;2.83;;;20.60;65.10;;;;;;5107397;27;44124;-69
2022/06/02 06:58:54;;;;;;;2.63;2.50;;;20.60;65.20;;;;;;5107682;27;44048;-68
2022/06/02 07:01:26;;;;;;;3.00;2.73;;;20.60;65.30;;;;;;5108158;27;43470;-69
2022/06/02 07:04:00;;;;;;;2.77;2.57;;;20.50;65.30;;;;;;5088052;28;43439;-68
2022/06/02 07:06:33;;;;;;;2.70;2.40;;;20.50;65.40;;;;;;5087304;28;43966;-68
2022/06/02 07:09:03;;;;;;;3.13;2.90;;;20.50;65.40;;;;;;5087201;28;43928;-68
2022/06/02 07:14:23;;;;;;;2.47;2.37;;;20.50;65.50;;;;;;5087786;28;44097;-69
2022/06/02 07:16:55;;;;;;;2.43;2.33;;;20.50;65.50;;;;;;5088496;27;46148;-68
2022/06/02 07:19:28;;;;;;;2.93;2.73;;;20.50;65.60;;;;;;5107460;27;43912;-68
2022/06/02 07:22:02;;;;;;;2.63;2.43;;;20.50;65.60;;;;;;5107486;27;43825;-68
2022/06/02 07:24:40;;;;;;;2.70;2.50;;;20.50;65.60;;;;;;5107799;27;44021;-68
2022/06/02 07:27:13;;;;;;;2.63;2.43;;;20.50;66.40;;;;;;5088449;27;47127;-68
2022/06/02 07:29:48;;;;;;;2.70;2.60;;;20.60;66.20;;;;;;5107125;27;44053;-68
2022/06/02 07:33:03;;;;;;;2.70;2.60;;;20.70;65.80;;;;;;5107363;27;43831;-69
2022/06/02 07:35:55;;;;;;;2.20;2.10;;;21.00;65.40;;;;;;5084052;27;43808;-68
2022/06/02 07:38:50;;;;;;;2.63;2.20;;;21.20;64.60;;;;;;5086592;28;43892;-68
2022/06/02 07:41:28;;;;;;;2.30;2.20;;;21.40;64.10;;;;;;5078646;28;43977;-68
2022/06/02 07:44:08;;;;;;;2.70;2.50;;;21.50;63.60;;;;;;5086765;28;43857;-69
2022/06/02 07:46:52;;;;;;;2.60;2.43;;;21.70;63.20;;;;;;5068200;28;43964;-68
2022/06/02 07:49:45;;;;;;;2.00;2.00;;;21.80;62.90;;;;;;5086101;28;44077;-68
2022/06/02 07:52:17;;;;;;;2.30;2.17;;;21.80;62.40;;;;;;5067678;28;44917;-68
2022/06/02 07:54:57;;;;;;;1.90;1.90;;;21.90;62.40;;;;;;5066599;28;43889;-68
2022/06/02 07:57:32;;;;;;;2.20;2.10;;;21.80;62.60;;;;;;5090845;28;43368;-68
2022/06/02 08:00:06;;;;;;;2.20;2.10;;;21.60;63.10;;;;;;5089916;28;43745;-68
2022/06/02 08:03:08;;;;;;;1.97;1.90;;;21.30;63.00;;;;;;5086686;28;43845;-68
2022/06/02 08:05:42;;;;;;;2.20;2.10;;;21.10;63.50;;;;;;5089904;28;43957;-69
2022/06/02 08:08:15;;;;;;;2.30;2.20;;;21.00;64.00;;;;;;5072379;28;44170;-68
2022/06/02 08:10:50;;;;;;;2.20;2.10;;;20.90;64.40;;;;;;5071334;28;45881;-69
2022/06/02 08:13:23;;;;;;;1.90;1.80;;;20.80;64.80;;;;;;5089808;28;43967;-68
2022/06/02 08:15:54;;;;;;;1.93;1.83;;;20.70;65.00;;;;;;5090022;28;43980;-68
2022/06/02 08:18:37;;;;;;;2.00;1.90;;;20.60;65.10;;;;;;5090471;28;43909;-68
2022/06/02 08:21:16;;;;;;;2.27;2.17;;;20.60;65.30;;;;;;5089619;28;43979;-70
2022/06/02 08:23:54;;;;;;;2.17;2.07;;;20.50;65.40;;;;;;5089719;28;43982;-68
2022/06/02 08:26:25;;;;;;;1.90;1.80;;;20.50;65.40;;;;;;5071732;28;43936;-68
2022/06/02 08:29:03;;;;;;;2.00;1.90;;;20.50;65.60;;;;;;5090436;28;43370;-68
2022/06/02 08:31:47;;;;;;;1.77;1.77;;;20.50;65.70;;;;;;5089542;28;44837;-68
2022/06/02 08:34:16;;;;;;;2.00;1.90;;;20.40;65.60;;;;;;5071014;28;45239;-69
2022/06/02 08:36:58;;;;;;;1.97;1.97;;;20.40;65.60;;;;;;5098351;27;43939;-70
2022/06/02 08:39:56;;;;;;;2.00;1.90;;;20.40;65.70;;;;;;5091562;27;43988;-69
2022/06/02 08:42:53;;;;;;;1.90;1.80;;;20.40;65.70;;;;;;5088233;28;46180;-68
2022/06/02 08:45:50;;;;;;;2.00;1.90;;;20.40;65.80;;;;;;5089913;28;43965;-68
2022/06/02 08:48:39;;;;;;;2.07;2.03;;;20.40;65.80;;;;;;5087696;27;44021;-69
2022/06/02 08:51:58;;;;;;;1.90;1.80;;;20.40;65.80;;;;;;5090607;27;43390;-68
2022/06/02 08:55:07;;;;;;;1.67;1.67;;;20.40;65.80;;;;;;5074381;27;43592;-69
2022/06/02 08:58:24;;;;;;;1.80;1.70;;;20.40;65.80;;;;;;5090163;27;43845;-68
2022/06/02 09:01:01;;;;;;;1.80;1.80;;;20.40;65.80;;;;;;5061285;27;43890;-68
2022/06/02 09:03:51;;;;;;;1.97;1.90;;;20.40;66.10;;;;;;5090237;27;43845;-68
2022/06/02 09:07:04;;;;;;;1.83;1.73;;;20.50;66.70;;;;;;5089478;27;44794;-67
2022/06/02 09:10:14;;;;;;;1.70;1.70;;;20.80;66.30;;;;;;5084389;27;44718;-68
2022/06/02 09:13:09;;;;;;;1.70;1.70;;;21.00;65.50;;;;;;5089821;27;43996;-68
2022/06/02 09:15:50;;;;;;;1.80;1.73;;;21.20;64.90;;;;;;5084392;27;44083;-69
2022/06/02 09:19:10;;;;;;;1.87;1.80;;;21.50;64.20;;;;;;5070815;28;46230;-68
2022/06/02 09:21:57;;;;;;;1.60;1.60;;;21.70;63.40;;;;;;5089673;27;43972;-68
2022/06/02 09:24:27;;;;;;;1.60;1.60;;;22.00;62.80;;;;;;5089836;27;43910;-68
2022/06/02 09:27:20;;;;;;;1.40;1.40;;;22.10;62.30;;;;;;5104470;27;43984;-69
2022/06/02 09:29:49;;;;;;;1.87;1.77;;;22.20;61.90;;;;;;5109032;27;44876;-69
2022/06/02 09:32:28;;;;;;;1.70;1.60;;;22.30;61.60;;;;;;5108919;27;44003;-68
2022/06/02 09:35:14;;;;;;;1.80;1.80;;;22.40;61.40;;;;;;5109220;27;43998;-68
2022/06/02 09:38:11;;;;;;;1.83;1.67;;;22.40;61.20;;;;;;5108634;27;43888;-68
2022/06/02 09:40:45;;;;;;;1.60;1.60;;;22.40;61.00;;;;;;5091843;27;44887;-68
2022/06/02 09:43:35;;;;;;;1.60;1.60;;;22.50;60.90;;;;;;5109202;27;43319;-68
2022/06/02 09:46:17;;;;;;;1.53;1.53;;;22.50;61.40;;;;;;5108742;27;43902;-68
2022/06/02 09:49:14;;;;;;;1.40;1.40;;;22.60;60.50;;;;;;5108851;27;43896;-69
2022/06/02 09:51:48;;;;;;;1.50;1.50;;;22.40;60.90;;;;;;5108763;27;44993;-68
2022/06/02 09:54:26;;;;;;;1.80;1.80;;;22.20;61.60;;;;;;5108647;27;43359;-68
2022/06/02 10:00:12;;;;;;;1.30;1.30;;;21.60;62.50;;;;;;5090372;27;43964;-68
2022/06/02 10:02:43;;;;;;;1.40;1.40;;;21.40;63.10;;;;;;5089719;27;46060;-69
2022/06/02 10:05:31;;;;;;;1.40;1.40;;;21.20;64.30;;;;;;5089923;27;45026;-69
2022/06/02 10:08:03;;;;;;;1.53;1.53;;;21.00;64.00;;;;;;5089789;27;44018;-69
2022/06/02 10:10:50;;;;;;;1.70;1.70;;;20.90;64.30;;;;;;5090296;27;43951;-69
2022/06/02 10:13:33;;;;;;;1.60;1.60;;;20.90;64.70;;;;;;5086982;27;43982;-68
2022/06/02 10:16:17;;;;;;;1.67;1.67;;;20.80;65.00;;;;;;5108294;27;43992;-68
2022/06/02 10:18:56;;;;;;;1.63;1.63;;;20.70;65.10;;;;;;5088545;27;43959;-69
2022/06/02 10:21:31;;;;;;;1.50;1.50;;;20.70;65.30;;;;;;5109061;27;44029;-69
2022/06/02 10:24:38;;;;;;;1.33;1.33;;;20.60;65.30;;;;;;5108157;27;43957;-68
2022/06/02 10:27:21;;;;;;;1.30;1.30;;;20.60;65.50;;;;;;5108200;27;43925;-68
2022/06/02 10:30:20;;;;;;;1.40;1.40;;;20.60;65.60;;;;;;5089555;27;43902;-68
2022/06/02 10:33:06;;;;;;;1.37;1.37;;;20.60;65.60;;;;;;5087721;27;44061;-68
2022/06/02 10:36:03;;;;;;;1.40;1.40;;;20.60;65.80;;;;;;5089103;27;43838;-68
2022/06/02 10:38:33;;;;;;;1.20;1.20;;;20.50;66.30;;;;;;5107612;27;44046;-67
2022/06/02 10:41:10;;;;;;;1.37;1.37;;;20.60;66.80;;;;;;5108003;27;43927;-68
2022/06/02 10:44:12;;;;;;;1.30;1.30;;;20.70;66.60;;;;;;5108380;27;44039;-69
2022/06/02 10:47:37;;;;;;;1.40;1.40;;;20.90;66.10;;;;;;5107780;27;45024;-69
2022/06/02 10:50:21;;;;;;;1.20;1.20;;;21.10;65.50;;;;;;5024795;28;44043;-69
2022/06/02 10:53:17;;;;;;;1.20;1.20;;;21.30;64.80;;;;;;5024513;28;44062;-69
2022/06/02 10:56:14;;;;;;;1.30;1.30;;;21.50;64.30;;;;;;5057559;27;44078;-68
2022/06/02 10:59:19;;;;;;;1.37;1.37;;;21.60;63.70;;;;;;5087869;27;43681;-68
2022/06/02 11:02:20;;;;;;;1.40;1.40;;;21.80;63.30;;;;;;5087430;27;43465;-68
2022/06/02 11:05:25;;;;;;;1.30;1.30;;;21.90;62.90;;;;;;5088155;27;44008;-68
2022/06/02 11:08:48;;;;;;;1.10;1.10;;;22.00;62.60;;;;;;5088391;27;43997;-68
2022/06/02 11:11:37;;;;;;;1.30;1.30;;;22.00;62.80;;;;;;5087625;27;44516;-68
2022/06/02 11:14:28;;;;;;;1.30;1.30;;;21.80;63.00;;;;;;5053761;27;43491;-68
2022/06/02 11:17:16;;;;;;;1.20;1.20;;;21.60;63.30;;;;;;5088171;27;43994;-67
2022/06/02 11:20:10;;;;;;;1.40;1.40;;;21.30;63.40;;;;;;5088206;27;43947;-69
2022/06/02 11:22:54;;;;;;;1.33;1.33;;;21.20;63.90;;;;;;5082311;27;45950;-69
2022/06/02 11:26:06;;;;;;;1.23;1.23;;;21.00;64.30;;;;;;5107083;27;44116;-68
2022/06/02 11:29:03;;;;;;;1.30;1.30;;;20.90;64.80;;;;;;5088623;27;43406;-69
2022/06/02 11:31:49;;;;;;;1.33;1.33;;;20.80;65.10;;;;;;5106249;27;43964;-68
2022/06/02 11:34:40;;;;;;;1.23;1.23;;;20.70;65.30;;;;;;5087068;28;43948;-68
2022/06/02 11:37:26;;;;;;;1.30;1.30;;;20.60;65.50;;;;;;5068761;28;44869;-68
2022/06/02 11:40:35;;;;;;;1.30;1.30;;;20.60;65.60;;;;;;5087461;28;43996;-68
2022/06/02 11:43:14;;;;;;;1.20;1.20;;;20.60;65.80;;;;;;5071520;28;43980;-69
2022/06/02 11:46:15;;;;;;;1.10;1.10;;;20.60;65.90;;;;;;5068921;27;46040;-68
2022/06/02 11:48:58;;;;;;;1.10;1.10;;;20.50;65.90;;;;;;5087044;27;43987;-68
2022/06/02 11:51:41;;;;;;;1.30;1.30;;;20.50;65.90;;;;;;5069170;27;43994;-68
2022/06/02 11:54:17;;;;;;;1.30;1.30;;;20.50;66.00;;;;;;5069204;27;43963;-68
2022/06/02 11:57:01;;;;;;;1.20;1.20;;;20.50;66.00;;;;;;5087233;27;43945;-68
2022/06/02 12:00:05;;;;;;;1.27;1.27;;;20.50;66.10;;;;;;5068608;28;44924;-68
2022/06/02 12:02:51;;;;;;;1.10;1.10;;;20.50;66.10;;;;;;5024121;28;44211;-68
2022/06/02 12:05:33;;;;;;;1.13;1.13;;;20.50;66.10;;;;;;5090029;27;43868;-69
2022/06/02 12:08:46;;;;;;;1.20;1.20;;;20.50;66.80;;;;;;5088216;27;45723;-69
2022/06/02 12:11:50;;;;;;;1.27;1.27;;;20.60;67.00;;;;;;5086425;27;44259;-68
2022/06/02 12:14:34;;;;;;;1.00;1.00;;;20.80;66.40;;;;;;5106770;27;43938;-69
2022/06/02 12:17:06;;;;;;;1.10;1.10;;;21.00;66.10;;;;;;5088409;27;43892;-69
2022/06/02 12:19:53;;;;;;;1.20;1.20;;;21.20;65.50;;;;;;5105665;27;44038;-69
2022/06/02 12:22:30;;;;;;;1.00;1.00;;;21.30;64.80;;;;;;5106927;27;43920;-69
2022/06/02 12:25:18;;;;;;;0.83;0.83;;;21.50;64.40;;;;;;5106576;27;44005;-69
2022/06/02 12:28:12;;;;;;;1.17;1.17;;;21.60;64.00;;;;;;5107147;27;43957;-68
2022/06/02 12:30:52;;;;;;;1.10;1.10;;;21.80;63.60;;;;;;5106426;27;43742;-68
2022/06/02 12:33:41;;;;;;;1.00;1.00;;;21.90;63.30;;;;;;5093345;27;44309;-68
2022/06/02 12:36:27;;;;;;;0.97;0.97;;;21.80;63.50;;;;;;5087362;27;44008;-68
2022/06/02 12:39:09;;;;;;;1.27;1.27;;;21.60;63.70;;;;;;5107262;27;43858;-68
2022/06/02 12:42:07;;;;;;;1.20;1.20;;;21.40;63.80;;;;;;5086226;27;43929;-68
2022/06/02 12:44:52;;;;;;;1.10;1.10;;;21.20;64.20;;;;;;5089156;28;43980;-68
2022/06/02 12:47:54;;;;;;;1.10;1.10;;;21.00;64.60;;;;;;5089570;27;43354;-68
2022/06/02 12:50:35;;;;;;;1.13;1.13;;;20.90;65.10;;;;;;5028511;28;44251;-68
2022/06/02 12:53:21;;;;;;;1.00;1.00;;;20.80;65.40;;;;;;5071613;27;45288;-69
2022/06/02 12:56:14;;;;;;;1.13;1.13;;;20.70;65.60;;;;;;5075097;28;46258;-68
2022/06/02 12:59:17;;;;;;;1.17;1.17;;;20.60;65.90;;;;;;5089680;28;43989;-69
2022/06/02 13:01:51;;;;;;;1.07;1.07;;;20.60;66.00;;;;;;5065379;27;44020;-68
2022/06/02 13:05:04;;;;;;;1.00;1.00;;;20.60;66.20;;;;;;5094675;27;44045;-68
2022/06/02 13:08:20;;;;;;;1.07;1.07;;;20.60;66.20;;;;;;5077997;27;44108;-68
2022/06/02 13:11:03;;;;;;;1.10;1.10;;;20.50;66.40;;;;;;5109552;27;43955;-69
2022/06/02 13:14:10;;;;;;;1.20;1.20;;;20.50;66.30;;;;;;5103915;27;43921;-68
2022/06/02 13:17:01;;;;;;;1.20;1.20;;;20.50;66.30;;;;;;5089610;27;43901;-69
2022/06/02 13:19:46;;;;;;;1.10;1.10;;;20.50;66.60;;;;;;5089509;27;43813;-68
2022/06/02 13:22:39;;;;;;;1.23;1.23;;;20.60;67.10;;;;;;5089918;27;43919;-69
2022/06/02 13:25:58;;;;;;;1.10;1.10;;;20.70;66.70;;;;;;5106076;27;43954;-68
2022/06/02 13:29:06;;;;;;;1.30;1.30;;;20.90;66.10;;;;;;5108982;27;43831;-68
2022/06/02 13:32:01;;;;;;;1.07;1.07;;;21.10;65.50;;;;;;5071325;28;46238;-68
2022/06/02 13:34:58;;;;;;;1.13;1.13;;;21.30;65.00;;;;;;5062340;27;44133;-69
2022/06/02 13:37:55;;;;;;;1.43;1.40;;;21.50;64.60;;;;;;5103067;27;43438;-69
2022/06/02 13:40:25;;;;;;;1.43;1.33;;;21.60;63.50;;;;;;5103950;27;43919;-68
2022/06/02 13:43:37;;;;;;;3.07;1.37;;;21.80;63.00;;;;;;5090656;27;44583;-68
2022/06/02 13:46:32;;;;;;;1.23;1.23;;;22.00;62.80;;;;;;5108976;27;43894;-68
2022/06/02 13:49:39;;;;;;;3.10;1.10;;;22.10;62.50;;;;;;5070939;27;44060;-68
2022/06/02 13:52:47;;;;;;;1.47;1.47;;;22.10;62.20;;;;;;5070914;27;44011;-69
2022/06/02 13:58:52;;;;;;;1.10;1.10;;;22.20;61.90;;;;;;5089193;27;44073;-68
2022/06/02 14:01:31;;;;;;;1.70;1.27;;;22.10;62.30;;;;;;5058840;27;43403;-69
2022/06/02 14:04:37;;;;;;;1.20;1.20;;;21.90;62.80;;;;;;5108279;27;43899;-69
2022/06/02 14:07:13;;;;;;;1.30;1.30;;;21.60;62.70;;;;;;5102082;27;43872;-68
2022/06/02 14:09:49;;;;;;;1.20;1.20;;;21.40;63.40;;;;;;5108701;27;43948;-68
2022/06/02 14:12:47;;;;;;;1.13;1.13;;;21.20;63.90;;;;;;5090213;27;43443;-69
2022/06/02 14:15:31;;;;;;;1.20;1.20;;;21.10;64.40;;;;;;5074130;27;46220;-69
2022/06/02 14:18:13;;;;;;;1.03;1.03;;;20.90;64.70;;;;;;5108013;27;43958;-69
2022/06/02 14:20:46;;;;;;;1.10;1.10;;;20.80;65.00;;;;;;5108581;27;43841;-69
2022/06/02 14:23:20;;;;;;;1.17;1.17;;;20.80;65.20;;;;;;5090143;27;44035;-68
2022/06/02 14:25:56;;;;;;;1.20;1.10;;;20.70;65.30;;;;;;5088476;27;44870;-69